Time;durP1;ratioP1;P1;durP2;ratioP2;P2;SDS_P1;SDS_P2;PMS_P1;PMS_P2;Temp;Humidity;BMP_temperature;BMP_pressure;BME280_temperature;BME280_humidity;BME280_pressure;Samples;Min_cycle;Max_cycle;Signal;HPM_P1;HPM_P2
2023/12/02 00:02:08;;;;;;;0.10;0.10;;;-0.10;99.90;;;;;;5051013;28;20031;-72
2023/12/02 00:04:34;;;;;;;0.10;0.10;;;-0.10;99.90;;;;;;5051033;28;20045;-72
2023/12/02 00:07:00;;;;;;;0.90;0.90;;;0.00;99.90;;;;;;5051279;28;20025;-72
2023/12/02 00:09:25;;;;;;;1.10;1.08;;;0.00;99.90;;;;;;5052268;28;20489;-72
2023/12/02 00:11:51;;;;;;;1.50;1.45;;;0.20;99.90;;;;;;5050899;28;20029;-72
2023/12/02 00:14:17;;;;;;;1.55;1.45;;;0.20;99.90;;;;;;5052367;28;20048;-72
2023/12/02 00:16:43;;;;;;;1.75;0.47;;;0.30;99.90;;;;;;5051752;28;20029;-72
2023/12/02 00:19:09;;;;;;;0.30;0.30;;;0.30;99.90;;;;;;5052435;28;20115;-72
2023/12/02 00:21:34;;;;;;;1.02;0.80;;;0.40;99.90;;;;;;5052141;28;20017;-72
2023/12/02 00:24:01;;;;;;;2.63;0.75;;;0.50;99.90;;;;;;5052198;28;20036;-72
2023/12/02 00:26:27;;;;;;;0.30;0.30;;;0.60;99.90;;;;;;5050945;28;20033;-72
2023/12/02 00:28:56;;;;;;;1.17;1.17;;;0.70;99.90;;;;;;5051092;28;20496;-72
2023/12/02 00:31:22;;;;;;;7.72;3.53;;;0.80;99.90;;;;;;5051861;28;20029;-72
2023/12/02 00:33:47;;;;;;;0.43;0.43;;;0.70;99.90;;;;;;5051889;28;20029;-72
2023/12/02 00:36:13;;;;;;;15.45;3.30;;;0.80;99.90;;;;;;5052308;28;20025;-72
2023/12/02 00:38:39;;;;;;;6.22;4.57;;;0.80;99.90;;;;;;5052103;28;20032;-72
2023/12/02 00:41:09;;;;;;;0.50;0.50;;;0.60;99.90;;;;;;5051809;28;20033;-71
2023/12/02 00:43:35;;;;;;;5.13;0.63;;;0.60;99.90;;;;;;5052071;28;20033;-71
2023/12/02 00:46:02;;;;;;;0.32;0.32;;;0.70;99.90;;;;;;5050707;28;20044;-71
2023/12/02 00:48:28;;;;;;;0.10;0.10;;;1.00;99.90;;;;;;5052258;28;20035;-72
2023/12/02 00:50:54;;;;;;;0.88;0.88;;;0.80;99.90;;;;;;5051798;28;20470;-71
2023/12/02 00:53:20;;;;;;;0.10;0.10;;;1.00;99.90;;;;;;5051946;28;20032;-72
2023/12/02 00:55:46;;;;;;;0.10;0.10;;;1.00;99.90;;;;;;5051893;28;20546;-71
2023/12/02 00:58:12;;;;;;;1.95;1.85;;;1.20;99.90;;;;;;5053090;28;20095;-71
2023/12/02 01:00:38;;;;;;;1.90;1.35;;;1.30;99.90;;;;;;5055457;28;20039;-72
2023/12/02 01:03:05;;;;;;;0.10;0.10;;;1.20;99.90;;;;;;5055345;28;20029;-72
2023/12/02 01:05:31;;;;;;;0.10;0.10;;;1.10;99.90;;;;;;5054306;28;20025;-72
2023/12/02 01:07:57;;;;;;;0.57;0.57;;;1.00;99.90;;;;;;5055210;28;20461;-71
2023/12/02 01:10:23;;;;;;;0.63;0.63;;;0.90;99.90;;;;;;5054353;28;20427;-72
2023/12/02 01:12:48;;;;;;;0.10;0.10;;;1.00;99.90;;;;;;5055231;28;20029;-72
2023/12/02 01:15:14;;;;;;;1.02;1.00;;;0.90;99.90;;;;;;5054869;28;20044;-72
2023/12/02 01:17:40;;;;;;;0.68;0.68;;;0.70;99.90;;;;;;5054059;28;20021;-72
2023/12/02 01:20:06;;;;;;;2.67;2.15;;;0.80;99.90;;;;;;5055150;28;20027;-72
2023/12/02 01:22:32;;;;;;;0.10;0.10;;;0.90;99.90;;;;;;5055276;28;20099;-72
2023/12/02 01:24:58;;;;;;;0.10;0.10;;;0.80;99.90;;;;;;5055147;28;20465;-72
2023/12/02 01:27:24;;;;;;;1.95;0.73;;;0.60;99.90;;;;;;5055093;28;20029;-72
2023/12/02 01:29:49;;;;;;;3.75;2.40;;;0.70;99.90;;;;;;5054792;28;20061;-72
2023/12/02 01:32:15;;;;;;;0.70;0.70;;;0.60;99.90;;;;;;5054996;28;20035;-72
2023/12/02 01:34:41;;;;;;;3.42;3.10;;;0.60;99.90;;;;;;5054828;28;20033;-72
2023/12/02 01:37:07;;;;;;;0.10;0.10;;;0.60;99.90;;;;;;5037100;28;20033;-72
2023/12/02 01:39:32;;;;;;;0.43;0.43;;;0.50;99.90;;;;;;5054790;28;20083;-72
2023/12/02 01:41:58;;;;;;;0.55;0.52;;;0.70;99.90;;;;;;5053544;28;20517;-71
2023/12/02 01:44:24;;;;;;;1.52;1.42;;;0.90;99.90;;;;;;5054322;28;20029;-72
2023/12/02 01:46:50;;;;;;;0.10;0.10;;;1.00;99.90;;;;;;5055250;28;20047;-72
2023/12/02 01:49:18;;;;;;;33.88;3.30;;;0.90;99.90;;;;;;5053456;28;20029;-72
2023/12/02 01:51:44;;;;;;;0.52;0.52;;;1.00;99.90;;;;;;5053489;28;20025;-72
2023/12/02 01:54:10;;;;;;;0.52;0.47;;;1.20;99.90;;;;;;5054318;28;20363;-72
2023/12/02 01:56:36;;;;;;;0.63;0.63;;;1.10;99.90;;;;;;5053427;28;20017;-72
2023/12/02 01:59:07;;;;;;;0.57;0.57;;;1.20;99.90;;;;;;5053068;28;20060;-72
2023/12/02 02:01:33;;;;;;;1.25;1.25;;;1.20;99.90;;;;;;5053163;28;20029;-72
2023/12/02 02:03:59;;;;;;;0.98;0.98;;;1.20;99.90;;;;;;5054221;28;20033;-72
2023/12/02 02:06:25;;;;;;;0.10;0.10;;;1.20;99.90;;;;;;5054435;28;20024;-72
2023/12/02 02:08:51;;;;;;;0.10;0.10;;;1.10;99.90;;;;;;5052025;28;20028;-72
2023/12/02 02:11:17;;;;;;;0.43;0.43;;;1.10;99.90;;;;;;5054216;28;20507;-72
2023/12/02 02:13:43;;;;;;;0.17;0.17;;;1.20;99.90;;;;;;5053753;28;20140;-72
2023/12/02 02:16:08;;;;;;;0.10;0.10;;;1.30;99.90;;;;;;5054431;28;20389;-72
2023/12/02 02:18:37;;;;;;;1.05;0.70;;;1.30;99.90;;;;;;5052561;28;20064;-72
2023/12/02 02:21:03;;;;;;;5.45;3.67;;;1.20;99.90;;;;;;5054227;28;20055;-72
2023/12/02 02:23:29;;;;;;;0.43;0.43;;;1.10;99.90;;;;;;5053542;28;20053;-72
2023/12/02 02:25:55;;;;;;;1.95;0.95;;;1.30;99.90;;;;;;5052877;28;20056;-72
2023/12/02 02:28:28;;;;;;;0.10;0.10;;;1.50;99.90;;;;;;5052381;28;20028;-72
2023/12/02 02:30:54;;;;;;;0.10;0.10;;;1.30;99.90;;;;;;5054001;28;20021;-72
2023/12/02 02:33:20;;;;;;;0.40;0.40;;;1.30;99.90;;;;;;5053730;28;20029;-72
2023/12/02 02:35:47;;;;;;;1.27;1.17;;;1.30;99.90;;;;;;5053873;28;20115;-72
2023/12/02 02:38:13;;;;;;;0.00;0.00;;;1.20;99.90;;;;;;5052767;28;20461;-72
2023/12/02 02:40:39;;;;;;;0.10;0.10;;;1.30;99.90;;;;;;5052164;28;20119;-72
2023/12/02 02:43:05;;;;;;;0.30;0.30;;;1.30;99.90;;;;;;5053650;28;20414;-72
2023/12/02 02:45:31;;;;;;;0.47;0.47;;;1.30;99.90;;;;;;5053630;28;20033;-72
2023/12/02 02:47:57;;;;;;;1.05;1.02;;;1.30;99.90;;;;;;5053394;28;20052;-72
2023/12/02 02:50:23;;;;;;;7.68;0.60;;;1.20;99.90;;;;;;5052322;28;20033;-72
2023/12/02 02:52:49;;;;;;;1.23;1.13;;;1.10;99.90;;;;;;5053227;28;20028;-72
2023/12/02 02:55:15;;;;;;;0.38;0.38;;;1.20;99.90;;;;;;5052246;28;20062;-72
2023/12/02 02:57:41;;;;;;;0.00;0.00;;;1.20;99.90;;;;;;5052884;28;20041;-72
2023/12/02 03:00:10;;;;;;;0.10;0.10;;;1.10;99.90;;;;;;5052126;28;20037;-72
2023/12/02 03:02:37;;;;;;;7.03;1.85;;;1.20;99.90;;;;;;5052178;28;20025;-72
2023/12/02 03:05:04;;;;;;;0.10;0.10;;;0.90;99.90;;;;;;5053045;28;20131;-72
2023/12/02 03:07:30;;;;;;;0.38;0.38;;;1.00;99.90;;;;;;5051753;28;20024;-72
2023/12/02 03:09:56;;;;;;;0.10;0.10;;;1.00;99.90;;;;;;5052797;28;20048;-72
2023/12/02 03:12:23;;;;;;;0.10;0.10;;;1.00;99.90;;;;;;5051829;28;20063;-72
2023/12/02 03:14:49;;;;;;;0.73;0.73;;;1.10;99.90;;;;;;5051552;28;20037;-72
2023/12/02 03:17:15;;;;;;;1.73;1.38;;;1.20;99.90;;;;;;5051963;28;20029;-72
2023/12/02 03:19:41;;;;;;;0.30;0.30;;;1.50;99.90;;;;;;5051307;28;20025;-72
2023/12/02 03:22:07;;;;;;;0.10;0.10;;;1.40;99.90;;;;;;5051948;28;20079;-72
2023/12/02 03:24:32;;;;;;;1.20;1.10;;;1.40;99.90;;;;;;5051455;28;20389;-72
2023/12/02 03:26:58;;;;;;;0.20;0.20;;;1.40;99.90;;;;;;5052873;28;20077;-72
2023/12/02 03:29:24;;;;;;;0.25;0.25;;;1.40;99.90;;;;;;5052881;28;20029;-72
2023/12/02 03:31:50;;;;;;;0.10;0.10;;;1.30;99.90;;;;;;5052850;28;20074;-72
2023/12/02 03:34:15;;;;;;;0.60;0.60;;;1.30;99.90;;;;;;5051637;28;20055;-72
2023/12/02 03:36:41;;;;;;;0.17;0.17;;;1.20;99.90;;;;;;5051479;28;20041;-72
2023/12/02 03:39:07;;;;;;;4.63;1.30;;;1.10;99.90;;;;;;5052883;28;20025;-72
2023/12/02 03:41:33;;;;;;;0.70;0.70;;;1.10;99.90;;;;;;5050990;28;20424;-72
2023/12/02 03:43:59;;;;;;;3.55;0.85;;;1.10;99.90;;;;;;5052623;28;20027;-72
2023/12/02 03:46:28;;;;;;;0.10;0.10;;;1.10;99.90;;;;;;5052448;28;20075;-72
2023/12/02 03:48:54;;;;;;;1.05;0.93;;;1.00;99.90;;;;;;5052819;28;20056;-72
2023/12/02 03:51:20;;;;;;;0.22;0.15;;;1.10;99.90;;;;;;5052447;28;20037;-72
2023/12/02 03:53:46;;;;;;;0.10;0.10;;;0.90;99.90;;;;;;5052624;28;20032;-72
2023/12/02 03:56:12;;;;;;;2.70;2.58;;;1.00;99.90;;;;;;5052080;28;20095;-72
2023/12/02 03:58:38;;;;;;;2.38;2.25;;;1.00;99.90;;;;;;5052618;28;20021;-72
2023/12/02 04:01:04;;;;;;;0.30;0.30;;;0.70;99.90;;;;;;5051236;28;20398;-72
2023/12/02 04:03:30;;;;;;;3.00;2.55;;;0.60;99.90;;;;;;5052486;28;20025;-72
2023/12/02 04:05:56;;;;;;;0.28;0.28;;;0.60;99.90;;;;;;5052308;28;20036;-72
2023/12/02 04:08:21;;;;;;;1.80;1.65;;;0.40;99.90;;;;;;5052336;28;20024;-72
2023/12/02 04:10:47;;;;;;;0.10;0.10;;;0.50;99.90;;;;;;5052244;28;20068;-72
2023/12/02 04:13:13;;;;;;;0.10;0.10;;;0.40;99.90;;;;;;5051218;28;20037;-72
2023/12/02 04:15:39;;;;;;;7.32;4.50;;;0.50;99.90;;;;;;5036897;28;20040;-72
2023/12/02 04:18:05;;;;;;;0.82;0.82;;;0.40;99.90;;;;;;5051229;28;20033;-72
2023/12/02 04:20:30;;;;;;;0.10;0.10;;;0.50;99.90;;;;;;5052554;28;20111;-72
2023/12/02 04:22:56;;;;;;;3.17;1.70;;;0.60;99.90;;;;;;5050722;28;20401;-72
2023/12/02 04:25:22;;;;;;;0.10;0.10;;;0.60;99.90;;;;;;5052355;28;20051;-72
2023/12/02 04:27:48;;;;;;;2.78;1.00;;;0.60;99.90;;;;;;5052040;28;20025;-72
2023/12/02 04:30:13;;;;;;;0.65;0.65;;;0.30;99.90;;;;;;5052216;28;20029;-72
2023/12/02 04:32:39;;;;;;;0.17;0.17;;;0.20;99.90;;;;;;5052725;28;20037;-71
2023/12/02 04:35:05;;;;;;;6.72;2.65;;;0.00;99.90;;;;;;5056182;28;20090;-72
2023/12/02 04:37:32;;;;;;;0.10;0.10;;;-0.20;99.90;;;;;;5054461;28;20020;-72
2023/12/02 04:39:58;;;;;;;0.68;0.68;;;-0.20;99.90;;;;;;5054649;28;20036;-72
2023/12/02 04:42:23;;;;;;;0.10;0.10;;;0.00;99.90;;;;;;5055875;28;20454;-72
2023/12/02 04:44:49;;;;;;;0.90;0.90;;;0.20;99.90;;;;;;5055741;28;20409;-72
2023/12/02 04:47:15;;;;;;;3.25;2.65;;;0.10;99.90;;;;;;5054360;28;20128;-72
2023/12/02 04:49:41;;;;;;;4.63;1.48;;;0.10;99.90;;;;;;5055847;28;20029;-72
2023/12/02 04:52:08;;;;;;;1.90;1.75;;;0.00;99.90;;;;;;5055353;28;20033;-72
2023/12/02 04:54:34;;;;;;;2.30;1.95;;;0.00;99.90;;;;;;5055605;28;20459;-72
2023/12/02 04:57:00;;;;;;;1.40;1.35;;;0.10;99.90;;;;;;5055747;28;20024;-72
2023/12/02 04:59:26;;;;;;;0.75;0.75;;;0.10;99.90;;;;;;5055727;28;20061;-72
2023/12/02 05:01:52;;;;;;;1.30;1.20;;;0.20;99.90;;;;;;5055338;28;20040;-72
2023/12/02 05:04:19;;;;;;;0.20;0.20;;;0.20;99.90;;;;;;5055604;28;20041;-72
2023/12/02 05:06:46;;;;;;;0.20;0.20;;;0.10;99.90;;;;;;5055064;28;20024;-72
2023/12/02 05:09:12;;;;;;;3.25;1.83;;;0.00;99.90;;;;;;5054368;28;20420;-72
2023/12/02 05:11:38;;;;;;;0.50;0.50;;;-0.10;99.90;;;;;;5054138;28;20112;-72
2023/12/02 05:14:03;;;;;;;0.75;0.75;;;0.10;99.90;;;;;;5055007;28;20074;-72
2023/12/02 05:16:29;;;;;;;1.40;1.33;;;0.00;99.90;;;;;;5054021;28;20033;-72
2023/12/02 05:18:55;;;;;;;0.10;0.10;;;0.00;99.90;;;;;;5053764;28;20029;-72
2023/12/02 05:21:21;;;;;;;0.52;0.52;;;0.20;99.90;;;;;;5054923;28;20094;-72
2023/12/02 05:23:46;;;;;;;0.10;0.10;;;0.40;99.90;;;;;;5055018;28;20079;-72
2023/12/02 05:26:12;;;;;;;0.10;0.10;;;0.40;99.90;;;;;;5055100;28;20111;-72
2023/12/02 05:28:38;;;;;;;0.52;0.52;;;0.50;99.90;;;;;;5055059;28;20078;-72
2023/12/02 05:31:05;;;;;;;3.22;1.58;;;0.40;99.90;;;;;;5055158;28;20035;-72
2023/12/02 05:33:31;;;;;;;5.63;2.70;;;0.20;99.90;;;;;;5054867;28;20112;-72
2023/12/02 05:35:57;;;;;;;4.78;2.53;;;0.00;99.90;;;;;;5054716;28;20033;-72
2023/12/02 05:38:23;;;;;;;1.60;1.50;;;-0.20;99.90;;;;;;5053796;28;20040;-73
2023/12/02 05:40:49;;;;;;;1.40;1.38;;;-0.30;99.90;;;;;;5054852;28;20021;-74
2023/12/02 05:43:14;;;;;;;0.10;0.10;;;-0.40;99.90;;;;;;5053320;28;20033;-74
2023/12/02 05:45:41;;;;;;;0.68;0.68;;;-0.50;99.90;;;;;;5053706;28;20580;-74
2023/12/02 05:48:07;;;;;;;4.18;2.75;;;-0.40;99.90;;;;;;5054565;28;20470;-75
2023/12/02 05:50:33;;;;;;;5.80;2.53;;;-0.30;99.90;;;;;;5054843;28;20036;-74
2023/12/02 05:52:58;;;;;;;0.90;0.90;;;-0.10;99.90;;;;;;5054459;28;20509;-74
2023/12/02 05:55:26;;;;;;;1.02;1.02;;;-0.30;99.90;;;;;;5054713;28;20086;-74
2023/12/02 05:57:52;;;;;;;0.10;0.10;;;-0.40;99.90;;;;;;5054318;28;20112;-74
2023/12/02 06:00:19;;;;;;;1.85;1.75;;;-0.20;99.90;;;;;;5056738;28;20025;-74
2023/12/02 06:02:45;;;;;;;0.75;0.52;;;-0.20;99.90;;;;;;5060535;28;20033;-74
2023/12/02 06:05:10;;;;;;;1.42;1.27;;;-0.40;99.90;;;;;;5052625;28;20025;-74
2023/12/02 06:07:36;;;;;;;4.63;2.35;;;-0.50;99.90;;;;;;5054095;28;20029;-74
2023/12/02 06:10:02;;;;;;;0.63;0.63;;;-0.60;99.90;;;;;;5052969;28;20496;-73
2023/12/02 06:12:28;;;;;;;4.85;1.45;;;-0.70;99.90;;;;;;5054405;28;20044;-74
2023/12/02 06:14:54;;;;;;;1.42;1.33;;;-0.60;99.90;;;;;;5053968;28;20029;-73
2023/12/02 06:17:20;;;;;;;0.10;0.10;;;-0.70;99.90;;;;;;5054110;28;20525;-74
2023/12/02 06:19:46;;;;;;;1.55;1.45;;;-0.70;99.90;;;;;;5053579;28;20111;-75
2023/12/02 06:22:13;;;;;;;0.10;0.10;;;-0.60;99.90;;;;;;5054150;28;20492;-75
2023/12/02 06:24:39;;;;;;;1.02;1.02;;;-0.50;99.90;;;;;;5053894;28;20040;-73
2023/12/02 06:27:05;;;;;;;0.20;0.20;;;-0.40;99.90;;;;;;5054174;28;20025;-73
2023/12/02 06:29:31;;;;;;;4.68;0.90;;;-0.50;99.90;;;;;;5053692;28;20025;-73
2023/12/02 06:31:57;;;;;;;2.95;1.45;;;-0.40;99.90;;;;;;5053937;28;20071;-74
2023/12/02 06:34:23;;;;;;;1.95;1.85;;;-0.60;99.90;;;;;;5052036;28;20106;-73
2023/12/02 06:36:49;;;;;;;0.77;0.77;;;-0.60;99.90;;;;;;5053929;28;20021;-73
2023/12/02 06:39:15;;;;;;;2.53;2.33;;;-0.80;99.90;;;;;;5053524;28;20351;-74
2023/12/02 06:41:41;;;;;;;9.05;2.85;;;-0.80;99.90;;;;;;5052455;28;20025;-73
2023/12/02 06:44:08;;;;;;;3.42;3.10;;;-0.80;99.90;;;;;;5052187;28;20016;-73
2023/12/02 06:46:34;;;;;;;0.40;0.40;;;-0.80;99.90;;;;;;5053511;28;20025;-73
2023/12/02 06:49:00;;;;;;;0.20;0.20;;;-0.70;99.90;;;;;;5053301;28;20111;-74
2023/12/02 06:51:28;;;;;;;1.20;1.20;;;-0.60;99.90;;;;;;5049999;28;20104;-74
2023/12/02 06:53:55;;;;;;;0.13;0.13;;;-0.50;99.90;;;;;;5049699;28;20029;-73
2023/12/02 06:56:24;;;;;;;0.63;0.63;;;-0.30;99.90;;;;;;5051230;28;20464;-74
2023/12/02 06:58:51;;;;;;;0.50;0.50;;;-0.50;99.90;;;;;;5051695;28;20039;-74
2023/12/02 07:01:27;;;;;;;0.50;0.50;;;-0.60;99.90;;;;;;5052527;28;20039;-74
2023/12/02 07:03:54;;;;;;;0.73;0.73;;;-0.60;99.90;;;;;;5052879;28;20044;-74
2023/12/02 07:06:20;;;;;;;1.40;1.40;;;-0.50;99.90;;;;;;5052987;28;20378;-74
2023/12/02 07:08:48;;;;;;;0.20;0.20;;;-0.30;99.90;;;;;;5053230;28;20017;-74
2023/12/02 07:11:14;;;;;;;3.53;1.45;;;-0.30;99.90;;;;;;5052802;28;20025;-74
2023/12/02 07:13:40;;;;;;;0.10;0.10;;;-0.30;99.90;;;;;;5052764;28;20482;-74
2023/12/02 07:16:07;;;;;;;3.17;2.90;;;-0.50;99.90;;;;;;5052960;28;20031;-74
2023/12/02 07:18:32;;;;;;;0.10;0.10;;;-0.50;99.90;;;;;;5051258;28;20207;-74
2023/12/02 07:20:58;;;;;;;0.10;0.10;;;-0.50;99.90;;;;;;5051972;28;20123;-74
2023/12/02 07:23:31;;;;;;;0.10;0.10;;;-0.40;99.90;;;;;;5052575;28;20032;-74
2023/12/02 07:25:57;;;;;;;0.10;0.10;;;-0.50;99.90;;;;;;5052661;28;20052;-74
2023/12/02 07:28:24;;;;;;;1.98;1.65;;;-0.40;99.90;;;;;;5051464;28;20033;-74
2023/12/02 07:30:50;;;;;;;1.27;0.82;;;-0.40;99.90;;;;;;5051441;28;20059;-74
2023/12/02 07:33:18;;;;;;;3.05;2.50;;;-0.50;99.90;;;;;;5051205;28;20033;-74
2023/12/02 07:35:44;;;;;;;0.75;0.43;;;-0.50;99.90;;;;;;5052570;28;20470;-74
2023/12/02 07:38:10;;;;;;;2.50;2.30;;;-0.60;99.90;;;;;;5052783;28;20067;-75
2023/12/02 07:40:36;;;;;;;3.28;2.88;;;-0.70;99.90;;;;;;5052588;28;20088;-74
2023/12/02 07:43:02;;;;;;;0.20;0.20;;;-0.90;99.90;;;;;;5052684;28;20036;-74
2023/12/02 07:45:28;;;;;;;0.20;0.20;;;-0.80;99.90;;;;;;5051346;28;20059;-74
2023/12/02 07:47:54;;;;;;;2.40;1.75;;;-0.60;99.90;;;;;;5052038;28;20041;-74
2023/12/02 07:50:20;;;;;;;11.25;4.07;;;-0.50;99.90;;;;;;5057269;28;20021;-73
2023/12/02 07:52:46;;;;;;;0.32;0.32;;;-0.70;99.90;;;;;;5055831;28;20040;-74
2023/12/02 07:55:12;;;;;;;4.20;1.75;;;-0.70;99.90;;;;;;5053080;28;20665;-73
2023/12/02 07:57:39;;;;;;;0.28;0.28;;;-0.60;99.90;;;;;;5060124;28;20028;-74
2023/12/02 08:00:07;;;;;;;0.20;0.20;;;-0.60;99.90;;;;;;5047175;28;20370;-74
2023/12/02 08:02:39;;;;;;;5.13;1.95;;;-0.60;99.90;;;;;;5056928;28;20129;-74
2023/12/02 08:05:05;;;;;;;0.85;0.85;;;-0.30;99.90;;;;;;5033744;28;20034;-74
2023/12/02 08:07:31;;;;;;;0.20;0.20;;;-0.20;99.90;;;;;;5046310;28;20397;-74
2023/12/02 08:09:57;;;;;;;0.82;0.77;;;0.00;99.90;;;;;;5062881;28;20028;-74
2023/12/02 08:12:22;;;;;;;0.10;0.10;;;-0.10;99.90;;;;;;5056216;28;20478;-77
2023/12/02 08:14:48;;;;;;;0.52;0.52;;;0.00;99.90;;;;;;5057093;28;20131;-78
2023/12/02 08:17:14;;;;;;;7.13;2.00;;;0.00;99.90;;;;;;5069088;28;20032;-76
2023/12/02 08:19:39;;;;;;;3.47;2.35;;;0.10;99.90;;;;;;5062979;28;20036;-75
2023/12/02 08:22:05;;;;;;;3.75;2.38;;;0.20;99.90;;;;;;5066275;28;20025;-74
2023/12/02 08:24:32;;;;;;;2.00;0.70;;;0.20;99.90;;;;;;5046801;28;20075;-74
2023/12/02 08:26:58;;;;;;;0.95;0.95;;;0.10;99.90;;;;;;5056560;28;20028;-73
2023/12/02 08:29:24;;;;;;;5.55;1.95;;;-0.10;99.90;;;;;;5062532;28;20151;-74
2023/12/02 08:31:51;;;;;;;2.20;2.00;;;0.20;99.90;;;;;;5065113;28;20482;-74
2023/12/02 08:34:17;;;;;;;4.03;2.78;;;0.30;99.90;;;;;;5063176;28;20027;-74
2023/12/02 08:36:43;;;;;;;1.75;1.17;;;0.10;99.90;;;;;;5057663;28;20149;-74
2023/12/02 08:39:10;;;;;;;0.70;0.70;;;-0.20;99.90;;;;;;5060855;28;20028;-74
2023/12/02 08:41:36;;;;;;;1.10;1.10;;;-0.10;99.90;;;;;;5060765;28;20048;-74
2023/12/02 08:44:02;;;;;;;6.63;2.50;;;0.30;99.90;;;;;;5059497;28;20025;-74
2023/12/02 08:46:28;;;;;;;0.77;0.77;;;0.50;99.90;;;;;;5058207;28;20029;-73
2023/12/02 08:48:54;;;;;;;2.10;2.00;;;0.50;99.90;;;;;;5053892;28;20009;-74
2023/12/02 08:51:21;;;;;;;0.70;0.70;;;0.40;99.90;;;;;;5064823;28;20021;-74
2023/12/02 08:53:51;;;;;;;5.03;3.25;;;0.60;99.90;;;;;;5051759;28;20036;-74
2023/12/02 08:56:17;;;;;;;5.07;2.30;;;1.00;99.90;;;;;;5055411;28;20024;-74
2023/12/02 08:58:43;;;;;;;0.10;0.10;;;1.20;99.90;;;;;;5058086;28;20052;-74
2023/12/02 09:01:08;;;;;;;3.70;2.95;;;1.40;99.90;;;;;;5059029;28;20020;-74
2023/12/02 09:03:34;;;;;;;6.70;3.30;;;1.30;99.90;;;;;;5067974;28;20035;-74
2023/12/02 09:06:00;;;;;;;6.10;1.08;;;0.90;99.90;;;;;;5063983;28;20492;-74
2023/12/02 09:08:26;;;;;;;8.10;3.75;;;1.30;99.90;;;;;;5057701;28;20017;-74
2023/12/02 09:10:52;;;;;;;16.70;6.82;;;0.90;99.90;;;;;;5058907;28;20470;-75
2023/12/02 09:13:27;;;;;;;22.80;8.27;;;1.20;99.90;;;;;;5042324;28;20024;-74
2023/12/02 09:15:53;;;;;;;2.30;2.20;;;1.10;99.90;;;;;;5054788;28;20040;-74
2023/12/02 09:18:37;;;;;;;0.30;0.30;;;1.40;99.90;;;;;;5052571;28;20028;-74
2023/12/02 09:21:15;;;;;;;1.08;1.08;;;1.40;99.90;;;;;;5061683;28;20465;-74
2023/12/02 09:23:43;;;;;;;3.63;1.20;;;1.80;99.90;;;;;;5060258;28;20024;-74
2023/12/02 09:26:26;;;;;;;0.55;0.55;;;1.80;99.90;;;;;;5067000;28;20017;-74
2023/12/02 09:28:52;;;;;;;12.05;6.38;;;2.20;99.90;;;;;;5054235;28;20064;-72
2023/12/02 09:31:18;;;;;;;1.45;1.35;;;2.10;99.90;;;;;;5063072;28;20017;-74
2023/12/02 09:33:45;;;;;;;19.33;6.15;;;1.50;99.90;;;;;;5064982;28;20464;-74
2023/12/02 09:36:36;;;;;;;2.63;2.03;;;1.60;99.90;;;;;;5059005;28;20064;-74
2023/12/02 09:39:16;;;;;;;15.50;7.35;;;1.60;99.90;;;;;;5054030;28;20535;-74
2023/12/02 09:41:57;;;;;;;5.03;4.30;;;1.70;99.90;;;;;;5067361;28;20040;-73
2023/12/02 09:44:39;;;;;;;3.22;2.03;;;1.60;99.90;;;;;;5064634;28;20029;-74
2023/12/02 09:47:20;;;;;;;5.20;2.15;;;2.30;99.90;;;;;;5051482;28;20111;-74
2023/12/02 09:50:07;;;;;;;0.65;0.65;;;2.40;99.90;;;;;;5058822;28;20027;-73
2023/12/02 09:52:48;;;;;;;8.60;4.22;;;2.30;99.90;;;;;;5051756;28;20036;-74
2023/12/02 09:55:26;;;;;;;0.50;0.50;;;2.30;99.90;;;;;;5049715;28;20060;-73
2023/12/02 09:58:12;;;;;;;9.68;6.32;;;2.00;99.90;;;;;;5055695;28;20044;-73
2023/12/02 10:00:59;;;;;;;12.30;3.33;;;1.80;99.90;;;;;;5055024;28;20116;-73
2023/12/02 10:03:37;;;;;;;16.45;3.40;;;2.40;99.90;;;;;;5052514;28;20493;-73
2023/12/02 10:06:17;;;;;;;18.92;3.60;;;3.00;99.90;;;;;;5045185;28;20025;-73
2023/12/02 10:09:08;;;;;;;5.55;3.58;;;3.40;99.90;;;;;;5052665;28;20037;-73
2023/12/02 10:11:43;;;;;;;0.43;0.43;;;3.40;99.90;;;;;;5052447;28;20021;-73
2023/12/02 10:14:13;;;;;;;13.23;5.82;;;3.80;99.90;;;;;;5052791;28;20028;-73
2023/12/02 10:16:42;;;;;;;8.85;3.80;;;3.60;99.90;;;;;;5055550;28;20358;-73
2023/12/02 10:19:17;;;;;;;9.05;5.40;;;3.50;99.90;;;;;;5066842;28;20075;-73
2023/12/02 10:21:49;;;;;;;3.22;2.65;;;3.50;99.90;;;;;;5067045;28;20037;-74
2023/12/02 10:24:24;;;;;;;25.42;7.50;;;3.10;99.90;;;;;;5059618;28;20155;-74
2023/12/02 10:26:49;;;;;;;1.55;1.45;;;3.00;99.90;;;;;;5053846;28;20028;-73
2023/12/02 10:29:31;;;;;;;4.90;2.97;;;3.20;99.90;;;;;;5063987;28;20090;-74
2023/12/02 10:32:34;;;;;;;5.10;3.65;;;4.30;99.90;;;;;;5063809;28;20024;-74
2023/12/02 10:35:28;;;;;;;7.72;6.22;;;3.90;99.90;;;;;;5061946;28;20083;-74
2023/12/02 10:38:16;;;;;;;5.45;3.03;;;4.10;99.90;;;;;;5057116;28;20021;-73
2023/12/02 10:40:51;;;;;;;9.40;5.65;;;4.20;99.90;;;;;;5046418;28;20056;-73
2023/12/02 10:43:29;;;;;;;5.28;3.05;;;4.40;99.90;;;;;;5063282;28;20108;-71
2023/12/02 10:45:55;;;;;;;19.45;9.85;;;4.50;99.90;;;;;;5067965;28;20035;-73
2023/12/02 10:48:21;;;;;;;0.10;0.10;;;4.40;99.90;;;;;;5057495;28;20025;-71
2023/12/02 10:50:49;;;;;;;0.57;0.57;;;4.60;99.90;;;;;;5055264;28;20070;-69
2023/12/02 10:53:20;;;;;;;2.35;1.63;;;5.00;99.90;;;;;;5063795;28;20078;-71
2023/12/02 10:55:53;;;;;;;1.58;1.50;;;5.10;99.90;;;;;;5067013;28;20081;-71
2023/12/02 10:58:20;;;;;;;8.63;6.82;;;4.80;99.90;;;;;;5057471;28;20013;-72
2023/12/02 11:00:51;;;;;;;6.47;5.05;;;4.50;99.90;;;;;;5055541;28;20024;-71
2023/12/02 11:03:36;;;;;;;9.70;5.50;;;4.60;99.90;;;;;;5063104;28;20039;-71
2023/12/02 11:06:14;;;;;;;1.50;1.40;;;5.00;99.90;;;;;;5061197;28;20146;-71
2023/12/02 11:08:50;;;;;;;0.85;0.85;;;5.40;99.90;;;;;;5053178;28;20025;-71
2023/12/02 11:11:58;;;;;;;3.72;3.38;;;5.40;99.90;;;;;;5056247;28;20025;-71
2023/12/02 11:14:25;;;;;;;17.67;8.30;;;5.50;99.90;;;;;;5069010;28;20036;-71
2023/12/02 11:17:06;;;;;;;1.98;1.67;;;4.80;99.90;;;;;;5050996;28;20033;-71
2023/12/02 11:20:12;;;;;;;2.13;2.00;;;4.90;99.90;;;;;;5050936;28;20048;-71
2023/12/02 11:23:09;;;;;;;1.65;1.52;;;5.00;99.90;;;;;;5052052;28;20445;-69
2023/12/02 11:25:53;;;;;;;2.45;1.55;;;5.90;99.90;;;;;;5058538;28;20032;-70
2023/12/02 11:28:30;;;;;;;5.60;3.30;;;6.10;99.90;;;;;;5056497;28;20025;-69
2023/12/02 11:31:34;;;;;;;12.75;8.00;;;6.20;99.90;;;;;;5057233;28;21489;-69
2023/12/02 11:34:21;;;;;;;6.32;3.67;;;6.40;99.90;;;;;;5053597;28;20056;-69
2023/12/02 11:37:15;;;;;;;7.25;3.78;;;6.60;99.90;;;;;;5058455;28;20028;-69
2023/12/02 11:40:03;;;;;;;19.55;5.82;;;6.60;99.90;;;;;;5061362;28;20039;-69
2023/12/02 11:42:38;;;;;;;1.48;1.13;;;6.50;99.90;;;;;;5049091;28;20032;-70
2023/12/02 11:45:19;;;;;;;4.15;3.03;;;6.90;99.90;;;;;;5051966;28;20377;-69
2023/12/02 11:48:25;;;;;;;7.13;3.85;;;6.40;99.90;;;;;;5063303;28;20115;-71
2023/12/02 11:51:06;;;;;;;6.60;5.82;;;6.10;99.90;;;;;;5056260;28;20032;-69
2023/12/02 11:54:16;;;;;;;6.03;4.15;;;5.90;99.90;;;;;;5049343;28;20035;-69
2023/12/02 11:57:06;;;;;;;5.90;3.60;;;6.10;99.90;;;;;;5062432;28;20124;-69
2023/12/02 11:59:55;;;;;;;7.60;3.40;;;5.80;99.90;;;;;;5021280;28;20127;-69
2023/12/02 12:03:05;;;;;;;2.60;2.15;;;5.50;99.90;;;;;;5070229;28;20044;-70
2023/12/02 12:05:52;;;;;;;3.35;1.58;;;6.50;99.90;;;;;;5076077;28;20045;-69
2023/12/02 12:08:21;;;;;;;17.13;3.25;;;7.00;99.90;;;;;;5055800;28;20028;-70
2023/12/02 12:10:50;;;;;;;7.40;5.22;;;6.70;99.90;;;;;;5068418;28;20013;-69
2023/12/02 12:13:19;;;;;;;11.35;6.93;;;6.70;99.90;;;;;;5064201;28;20029;-69
2023/12/02 12:15:45;;;;;;;2.13;1.98;;;7.00;99.90;;;;;;5062564;28;20045;-69
2023/12/02 12:18:13;;;;;;;1.10;1.10;;;6.90;99.90;;;;;;5059418;28;20021;-70
2023/12/02 12:20:41;;;;;;;1.45;1.23;;;6.80;99.90;;;;;;5058562;28;20025;-71
2023/12/02 12:23:07;;;;;;;1.02;0.85;;;7.50;99.90;;;;;;5049971;28;20036;-70
2023/12/02 12:25:33;;;;;;;21.15;3.92;;;8.30;99.90;;;;;;5063468;28;20430;-70
2023/12/02 12:28:06;;;;;;;7.43;3.33;;;8.40;99.90;;;;;;5060994;28;20024;-70
2023/12/02 12:30:48;;;;;;;8.25;1.70;;;8.00;99.90;;;;;;5047688;28;20111;-69
2023/12/02 12:33:19;;;;;;;12.05;4.88;;;7.50;99.90;;;;;;5055434;28;20031;-70
2023/12/02 12:35:46;;;;;;;3.90;2.53;;;7.70;99.90;;;;;;5059101;28;20036;-71
2023/12/02 12:38:12;;;;;;;8.43;3.83;;;8.20;99.90;;;;;;5066644;28;20542;-70
2023/12/02 12:40:40;;;;;;;7.45;4.22;;;8.30;99.90;;;;;;5064029;28;20013;-71
2023/12/02 12:43:12;;;;;;;19.17;8.00;;;7.90;99.90;;;;;;5064153;28;20025;-70
2023/12/02 12:45:41;;;;;;;1.65;1.55;;;7.40;99.90;;;;;;5064725;28;20024;-70
2023/12/02 12:48:08;;;;;;;1.98;1.20;;;7.80;99.90;;;;;;5063383;28;20043;-71
2023/12/02 12:50:37;;;;;;;2.50;2.33;;;8.60;99.90;;;;;;5064470;28;20448;-71
2023/12/02 12:53:10;;;;;;;5.10;3.13;;;8.40;99.90;;;;;;5064178;28;20485;-71
2023/12/02 12:55:49;;;;;;;9.98;5.05;;;7.90;99.90;;;;;;5063485;28;20442;-71
2023/12/02 12:58:16;;;;;;;6.70;2.78;;;8.30;99.90;;;;;;5058707;28;20478;-70
2023/12/02 13:00:52;;;;;;;16.88;3.72;;;7.80;99.90;;;;;;5070418;28;20051;-70
2023/12/02 13:03:31;;;;;;;2.22;1.85;;;8.00;99.90;;;;;;5066907;28;20025;-70
2023/12/02 13:06:15;;;;;;;7.95;4.80;;;9.10;99.90;;;;;;5055923;28;20116;-70